sensor_id;sensor_type;location;lat;lon;timestamp;temperature;humidity
11599;DHT22;5855;48.840;9.188;2022-07-15T00:00:08;20.30;67.40
11599;DHT22;5855;48.840;9.188;2022-07-15T00:02:35;20.20;67.60
11599;DHT22;5855;48.840;9.188;2022-07-15T00:05:03;20.10;67.50
11599;DHT22;5855;48.840;9.188;2022-07-15T00:07:30;20.10;68.10
11599;DHT22;5855;48.840;9.188;2022-07-15T00:09:57;20.10;68.40
11599;DHT22;5855;48.840;9.188;2022-07-15T00:12:45;20.10;68.80
11599;DHT22;5855;48.840;9.188;2022-07-15T00:15:14;20.10;69.10
11599;DHT22;5855;48.840;9.188;2022-07-15T00:17:42;20.00;69.60
11599;DHT22;5855;48.840;9.188;2022-07-15T00:20:10;20.00;70.20
11599;DHT22;5855;48.840;9.188;2022-07-15T00:22:38;19.90;71.00
11599;DHT22;5855;48.840;9.188;2022-07-15T00:25:05;19.70;72.70
11599;DHT22;5855;48.840;9.188;2022-07-15T00:27:32;19.70;73.20
11599;DHT22;5855;48.840;9.188;2022-07-15T00:29:59;19.50;75.00
11599;DHT22;5855;48.840;9.188;2022-07-15T00:32:27;19.40;76.60
11599;DHT22;5855;48.840;9.188;2022-07-15T00:34:54;19.30;78.20
11599;DHT22;5855;48.840;9.188;2022-07-15T00:37:21;19.20;80.20
11599;DHT22;5855;48.840;9.188;2022-07-15T00:39:47;19.10;81.70
11599;DHT22;5855;48.840;9.188;2022-07-15T00:42:14;19.00;83.40
11599;DHT22;5855;48.840;9.188;2022-07-15T00:45:01;18.90;85.00
11599;DHT22;5855;48.840;9.188;2022-07-15T00:47:30;18.80;86.60
11599;DHT22;5855;48.840;9.188;2022-07-15T00:49:57;18.70;87.90
11599;DHT22;5855;48.840;9.188;2022-07-15T00:52:25;18.60;89.60
11599;DHT22;5855;48.840;9.188;2022-07-15T00:54:54;18.60;90.60
11599;DHT22;5855;48.840;9.188;2022-07-15T00:57:23;18.50;91.40
11599;DHT22;5855;48.840;9.188;2022-07-15T00:59:52;18.50;92.20
11599;DHT22;5855;48.840;9.188;2022-07-15T01:02:20;18.30;92.80
11599;DHT22;5855;48.840;9.188;2022-07-15T01:04:49;18.40;93.50
11599;DHT22;5855;48.840;9.188;2022-07-15T01:07:17;18.30;93.90
11599;DHT22;5855;48.840;9.188;2022-07-15T01:09:43;18.30;94.40
11599;DHT22;5855;48.840;9.188;2022-07-15T01:12:11;18.30;94.70
11599;DHT22;5855;48.840;9.188;2022-07-15T01:14:38;18.20;95.30
11599;DHT22;5855;48.840;9.188;2022-07-15T01:17:08;18.10;95.80
11599;DHT22;5855;48.840;9.188;2022-07-15T01:19:35;18.10;96.20
11599;DHT22;5855;48.840;9.188;2022-07-15T01:22:03;18.00;96.80
11599;DHT22;5855;48.840;9.188;2022-07-15T01:24:30;17.80;97.30
11599;DHT22;5855;48.840;9.188;2022-07-15T01:26:57;17.70;98.50
11599;DHT22;5855;48.840;9.188;2022-07-15T01:29:24;17.80;99.00
11599;DHT22;5855;48.840;9.188;2022-07-15T01:31:51;17.70;99.30
11599;DHT22;5855;48.840;9.188;2022-07-15T01:34:18;17.60;99.80
11599;DHT22;5855;48.840;9.188;2022-07-15T01:36:45;17.60;99.90
11599;DHT22;5855;48.840;9.188;2022-07-15T01:39:13;17.70;99.90
11599;DHT22;5855;48.840;9.188;2022-07-15T01:41:40;17.70;99.90
11599;DHT22;5855;48.840;9.188;2022-07-15T01:44:07;17.70;99.90
11599;DHT22;5855;48.840;9.188;2022-07-15T01:46:33;17.60;99.90
11599;DHT22;5855;48.840;9.188;2022-07-15T01:49:00;17.50;99.90
11599;DHT22;5855;48.840;9.188;2022-07-15T01:51:44;17.50;99.90
11599;DHT22;5855;48.840;9.188;2022-07-15T01:54:13;17.60;99.90
11599;DHT22;5855;48.840;9.188;2022-07-15T01:56:40;17.60;99.90
11599;DHT22;5855;48.840;9.188;2022-07-15T01:59:07;17.70;99.90
11599;DHT22;5855;48.840;9.188;2022-07-15T02:01:33;17.70;99.90
11599;DHT22;5855;48.840;9.188;2022-07-15T02:04:01;17.70;99.90
11599;DHT22;5855;48.840;9.188;2022-07-15T02:06:28;17.80;99.90
11599;DHT22;5855;48.840;9.188;2022-07-15T02:08:55;17.80;99.90
11599;DHT22;5855;48.840;9.188;2022-07-15T02:11:24;17.70;99.90
11599;DHT22;5855;48.840;9.188;2022-07-15T02:13:50;17.60;99.90
11599;DHT22;5855;48.840;9.188;2022-07-15T02:16:19;17.50;99.90
11599;DHT22;5855;48.840;9.188;2022-07-15T02:18:47;17.40;99.90
11599;DHT22;5855;48.840;9.188;2022-07-15T02:21:14;17.30;99.90
11599;DHT22;5855;48.840;9.188;2022-07-15T02:23:41;17.20;99.90
11599;DHT22;5855;48.840;9.188;2022-07-15T02:26:08;17.20;99.90
11599;DHT22;5855;48.840;9.188;2022-07-15T02:28:36;17.20;99.90
11599;DHT22;5855;48.840;9.188;2022-07-15T02:31:03;17.20;99.90
11599;DHT22;5855;48.840;9.188;2022-07-15T02:33:31;17.20;99.90
11599;DHT22;5855;48.840;9.188;2022-07-15T02:35:57;17.20;99.90
11599;DHT22;5855;48.840;9.188;2022-07-15T02:38:24;17.10;99.90
11599;DHT22;5855;48.840;9.188;2022-07-15T02:40:51;17.10;99.90
11599;DHT22;5855;48.840;9.188;2022-07-15T02:43:18;17.00;99.90
11599;DHT22;5855;48.840;9.188;2022-07-15T02:45:46;17.00;99.90
11599;DHT22;5855;48.840;9.188;2022-07-15T02:48:13;17.10;99.90
11599;DHT22;5855;48.840;9.188;2022-07-15T02:50:41;17.00;99.90
11599;DHT22;5855;48.840;9.188;2022-07-15T02:53:08;17.00;99.90
11599;DHT22;5855;48.840;9.188;2022-07-15T02:55:35;16.90;99.90
11599;DHT22;5855;48.840;9.188;2022-07-15T02:58:02;16.80;99.90
11599;DHT22;5855;48.840;9.188;2022-07-15T03:00:29;16.80;99.90
11599;DHT22;5855;48.840;9.188;2022-07-15T03:02:59;16.70;99.90
11599;DHT22;5855;48.840;9.188;2022-07-15T03:05:26;16.70;99.90
11599;DHT22;5855;48.840;9.188;2022-07-15T03:07:53;16.70;99.90
11599;DHT22;5855;48.840;9.188;2022-07-15T03:10:19;16.80;99.90
11599;DHT22;5855;48.840;9.188;2022-07-15T03:12:46;16.70;99.90
11599;DHT22;5855;48.840;9.188;2022-07-15T03:15:24;16.60;99.90
11599;DHT22;5855;48.840;9.188;2022-07-15T03:17:51;16.50;99.90
11599;DHT22;5855;48.840;9.188;2022-07-15T03:20:20;16.50;99.90
11599;DHT22;5855;48.840;9.188;2022-07-15T03:22:47;16.40;99.90
11599;DHT22;5855;48.840;9.188;2022-07-15T03:25:14;16.30;99.90
11599;DHT22;5855;48.840;9.188;2022-07-15T03:27:40;16.30;99.90
11599;DHT22;5855;48.840;9.188;2022-07-15T03:30:08;16.30;99.90
11599;DHT22;5855;48.840;9.188;2022-07-15T03:32:35;16.40;99.90
11599;DHT22;5855;48.840;9.188;2022-07-15T03:35:02;16.30;99.90
11599;DHT22;5855;48.840;9.188;2022-07-15T03:37:30;16.40;99.90
11599;DHT22;5855;48.840;9.188;2022-07-15T03:39:58;16.30;99.90
11599;DHT22;5855;48.840;9.188;2022-07-15T03:42:25;16.30;99.90
11599;DHT22;5855;48.840;9.188;2022-07-15T03:44:52;16.30;99.90
11599;DHT22;5855;48.840;9.188;2022-07-15T03:47:18;16.30;99.90
11599;DHT22;5855;48.840;9.188;2022-07-15T03:49:46;16.20;99.90
11599;DHT22;5855;48.840;9.188;2022-07-15T03:52:13;16.10;99.90
11599;DHT22;5855;48.840;9.188;2022-07-15T03:54:41;16.10;99.90
11599;DHT22;5855;48.840;9.188;2022-07-15T03:57:08;16.10;99.90
11599;DHT22;5855;48.840;9.188;2022-07-15T03:59:35;16.00;99.90
11599;DHT22;5855;48.840;9.188;2022-07-15T04:02:02;16.00;99.90
11599;DHT22;5855;48.840;9.188;2022-07-15T04:04:28;16.00;99.90
11599;DHT22;5855;48.840;9.188;2022-07-15T04:06:55;16.00;99.90
11599;DHT22;5855;48.840;9.188;2022-07-15T04:09:22;16.00;99.90
11599;DHT22;5855;48.840;9.188;2022-07-15T04:11:50;16.10;99.90
11599;DHT22;5855;48.840;9.188;2022-07-15T04:14:17;16.10;99.90
11599;DHT22;5855;48.840;9.188;2022-07-15T04:16:47;16.10;99.90
11599;DHT22;5855;48.840;9.188;2022-07-15T04:19:14;16.10;99.90
11599;DHT22;5855;48.840;9.188;2022-07-15T04:21:41;16.20;99.90
11599;DHT22;5855;48.840;9.188;2022-07-15T04:24:08;16.20;99.90
11599;DHT22;5855;48.840;9.188;2022-07-15T04:26:35;16.20;99.90
11599;DHT22;5855;48.840;9.188;2022-07-15T04:29:03;16.10;99.90
11599;DHT22;5855;48.840;9.188;2022-07-15T04:31:30;16.20;99.90
11599;DHT22;5855;48.840;9.188;2022-07-15T04:33:57;16.20;99.90
11599;DHT22;5855;48.840;9.188;2022-07-15T04:36:24;16.20;99.90
11599;DHT22;5855;48.840;9.188;2022-07-15T04:38:51;16.20;99.90
11599;DHT22;5855;48.840;9.188;2022-07-15T04:41:18;16.30;99.90
11599;DHT22;5855;48.840;9.188;2022-07-15T04:43:45;16.30;99.90
11599;DHT22;5855;48.840;9.188;2022-07-15T04:46:13;16.40;99.90
11599;DHT22;5855;48.840;9.188;2022-07-15T04:48:40;16.40;99.90
11599;DHT22;5855;48.840;9.188;2022-07-15T04:51:24;16.40;99.90
11599;DHT22;5855;48.840;9.188;2022-07-15T04:53:51;16.50;99.90
11599;DHT22;5855;48.840;9.188;2022-07-15T04:56:18;16.50;99.90
11599;DHT22;5855;48.840;9.188;2022-07-15T04:58:45;16.60;99.90
11599;DHT22;5855;48.840;9.188;2022-07-15T05:01:13;16.60;99.90
11599;DHT22;5855;48.840;9.188;2022-07-15T05:03:40;16.70;99.90
11599;DHT22;5855;48.840;9.188;2022-07-15T05:06:07;16.70;99.90
11599;DHT22;5855;48.840;9.188;2022-07-15T05:08:34;16.80;99.90
11599;DHT22;5855;48.840;9.188;2022-07-15T05:11:01;16.80;99.90
11599;DHT22;5855;48.840;9.188;2022-07-15T05:13:28;16.90;99.90
11599;DHT22;5855;48.840;9.188;2022-07-15T05:15:55;17.00;99.90
11599;DHT22;5855;48.840;9.188;2022-07-15T05:18:23;17.00;99.90
11599;DHT22;5855;48.840;9.188;2022-07-15T05:20:51;17.10;99.90
11599;DHT22;5855;48.840;9.188;2022-07-15T05:23:18;17.20;99.90
11599;DHT22;5855;48.840;9.188;2022-07-15T05:25:45;17.30;99.90
11599;DHT22;5855;48.840;9.188;2022-07-15T05:28:12;17.40;99.90
11599;DHT22;5855;48.840;9.188;2022-07-15T05:30:39;17.40;99.90
11599;DHT22;5855;48.840;9.188;2022-07-15T05:33:06;17.50;99.90
11599;DHT22;5855;48.840;9.188;2022-07-15T05:35:34;17.60;99.90
11599;DHT22;5855;48.840;9.188;2022-07-15T05:38:01;17.60;99.90
11599;DHT22;5855;48.840;9.188;2022-07-15T05:40:28;17.70;99.90
11599;DHT22;5855;48.840;9.188;2022-07-15T05:42:55;17.80;99.90
11599;DHT22;5855;48.840;9.188;2022-07-15T05:45:22;17.80;99.90
11599;DHT22;5855;48.840;9.188;2022-07-15T05:47:50;18.00;99.90
11599;DHT22;5855;48.840;9.188;2022-07-15T05:50:17;18.10;99.90
11599;DHT22;5855;48.840;9.188;2022-07-15T05:52:45;18.10;99.90
11599;DHT22;5855;48.840;9.188;2022-07-15T05:55:12;18.20;99.90
11599;DHT22;5855;48.840;9.188;2022-07-15T05:57:39;18.30;99.90
11599;DHT22;5855;48.840;9.188;2022-07-15T06:00:07;18.40;99.90
11599;DHT22;5855;48.840;9.188;2022-07-15T06:02:35;18.40;99.90
11599;DHT22;5855;48.840;9.188;2022-07-15T06:05:02;18.50;99.90
11599;DHT22;5855;48.840;9.188;2022-07-15T06:07:29;18.60;99.90
11599;DHT22;5855;48.840;9.188;2022-07-15T06:09:57;18.60;99.90
11599;DHT22;5855;48.840;9.188;2022-07-15T06:12:24;18.70;99.90
11599;DHT22;5855;48.840;9.188;2022-07-15T06:14:51;18.80;99.90
11599;DHT22;5855;48.840;9.188;2022-07-15T06:17:18;18.90;99.90
11599;DHT22;5855;48.840;9.188;2022-07-15T06:19:44;19.00;99.90
11599;DHT22;5855;48.840;9.188;2022-07-15T06:22:12;19.10;99.90
11599;DHT22;5855;48.840;9.188;2022-07-15T06:24:39;19.20;99.90
11599;DHT22;5855;48.840;9.188;2022-07-15T06:27:07;19.30;99.90
11599;DHT22;5855;48.840;9.188;2022-07-15T06:29:34;19.50;99.90
11599;DHT22;5855;48.840;9.188;2022-07-15T06:32:01;19.60;99.90
11599;DHT22;5855;48.840;9.188;2022-07-15T06:34:28;19.70;99.90
11599;DHT22;5855;48.840;9.188;2022-07-15T06:36:54;19.80;99.90
11599;DHT22;5855;48.840;9.188;2022-07-15T06:39:21;19.90;99.90
11599;DHT22;5855;48.840;9.188;2022-07-15T06:41:48;20.00;99.90
11599;DHT22;5855;48.840;9.188;2022-07-15T06:44:16;20.10;99.90
11599;DHT22;5855;48.840;9.188;2022-07-15T06:46:43;20.30;99.90
11599;DHT22;5855;48.840;9.188;2022-07-15T06:49:10;20.40;99.90
11599;DHT22;5855;48.840;9.188;2022-07-15T06:51:37;20.50;99.90
11599;DHT22;5855;48.840;9.188;2022-07-15T06:54:04;20.60;99.90
11599;DHT22;5855;48.840;9.188;2022-07-15T06:56:32;20.80;99.90
11599;DHT22;5855;48.840;9.188;2022-07-15T06:58:59;20.90;99.20
11599;DHT22;5855;48.840;9.188;2022-07-15T07:01:27;21.10;98.80
11599;DHT22;5855;48.840;9.188;2022-07-15T07:03:54;21.20;97.80
11599;DHT22;5855;48.840;9.188;2022-07-15T07:06:21;21.40;97.10
11599;DHT22;5855;48.840;9.188;2022-07-15T07:08:48;21.50;97.10
11599;DHT22;5855;48.840;9.188;2022-07-15T07:11:17;21.70;96.30
11599;DHT22;5855;48.840;9.188;2022-07-15T07:13:44;21.80;96.00
11599;DHT22;5855;48.840;9.188;2022-07-15T07:16:12;22.00;95.60
11599;DHT22;5855;48.840;9.188;2022-07-15T07:18:40;22.20;95.10
11599;DHT22;5855;48.840;9.188;2022-07-15T07:21:07;22.40;94.30
11599;DHT22;5855;48.840;9.188;2022-07-15T07:23:34;22.50;93.70
11599;DHT22;5855;48.840;9.188;2022-07-15T07:26:01;22.60;93.20
11599;DHT22;5855;48.840;9.188;2022-07-15T07:28:28;22.80;92.40
11599;DHT22;5855;48.840;9.188;2022-07-15T07:30:55;22.90;91.50
11599;DHT22;5855;48.840;9.188;2022-07-15T07:33:22;23.10;90.50
11599;DHT22;5855;48.840;9.188;2022-07-15T07:35:51;23.20;90.50
11599;DHT22;5855;48.840;9.188;2022-07-15T07:38:18;23.30;90.40
11599;DHT22;5855;48.840;9.188;2022-07-15T07:40:45;23.50;88.40
11599;DHT22;5855;48.840;9.188;2022-07-15T07:43:14;23.50;87.90
11599;DHT22;5855;48.840;9.188;2022-07-15T07:45:41;23.70;85.50
11599;DHT22;5855;48.840;9.188;2022-07-15T07:48:08;23.90;83.60
11599;DHT22;5855;48.840;9.188;2022-07-15T07:50:35;24.20;82.60
11599;DHT22;5855;48.840;9.188;2022-07-15T07:53:03;24.40;82.00
11599;DHT22;5855;48.840;9.188;2022-07-15T07:55:30;24.50;80.70
11599;DHT22;5855;48.840;9.188;2022-07-15T07:57:58;24.60;80.70
11599;DHT22;5855;48.840;9.188;2022-07-15T08:00:26;24.80;80.00
11599;DHT22;5855;48.840;9.188;2022-07-15T08:02:54;24.90;78.50
11599;DHT22;5855;48.840;9.188;2022-07-15T08:05:21;25.10;77.90
11599;DHT22;5855;48.840;9.188;2022-07-15T08:07:48;25.30;76.30
11599;DHT22;5855;48.840;9.188;2022-07-15T08:10:17;25.20;75.30
11599;DHT22;5855;48.840;9.188;2022-07-15T08:12:45;25.40;74.70
11599;DHT22;5855;48.840;9.188;2022-07-15T08:15:12;25.10;73.40
11599;DHT22;5855;48.840;9.188;2022-07-15T08:17:40;25.30;73.80
11599;DHT22;5855;48.840;9.188;2022-07-15T08:20:09;25.60;73.60
11599;DHT22;5855;48.840;9.188;2022-07-15T08:22:37;25.90;72.50
11599;DHT22;5855;48.840;9.188;2022-07-15T08:25:04;26.10;72.20
11599;DHT22;5855;48.840;9.188;2022-07-15T08:27:33;26.40;70.80
11599;DHT22;5855;48.840;9.188;2022-07-15T08:30:00;26.50;69.00
11599;DHT22;5855;48.840;9.188;2022-07-15T08:32:27;26.70;67.70
11599;DHT22;5855;48.840;9.188;2022-07-15T08:34:54;26.80;67.10
11599;DHT22;5855;48.840;9.188;2022-07-15T08:37:21;26.80;66.10
11599;DHT22;5855;48.840;9.188;2022-07-15T08:39:48;26.80;65.20
11599;DHT22;5855;48.840;9.188;2022-07-15T08:42:14;27.00;65.50
11599;DHT22;5855;48.840;9.188;2022-07-15T08:44:43;27.30;64.20
11599;DHT22;5855;48.840;9.188;2022-07-15T08:47:10;27.40;61.90
11599;DHT22;5855;48.840;9.188;2022-07-15T08:49:39;27.30;61.10
11599;DHT22;5855;48.840;9.188;2022-07-15T08:52:06;26.50;61.60
11599;DHT22;5855;48.840;9.188;2022-07-15T08:54:34;26.80;62.40
11599;DHT22;5855;48.840;9.188;2022-07-15T08:57:01;26.80;61.00
11599;DHT22;5855;48.840;9.188;2022-07-15T08:59:28;27.00;60.10
11599;DHT22;5855;48.840;9.188;2022-07-15T09:01:57;27.30;59.60
11599;DHT22;5855;48.840;9.188;2022-07-15T09:04:24;27.40;59.40
11599;DHT22;5855;48.840;9.188;2022-07-15T09:06:51;27.50;58.70
11599;DHT22;5855;48.840;9.188;2022-07-15T09:09:26;27.50;58.80
11599;DHT22;5855;48.840;9.188;2022-07-15T09:11:59;27.80;58.60
11599;DHT22;5855;48.840;9.188;2022-07-15T09:14:27;28.00;57.90
11599;DHT22;5855;48.840;9.188;2022-07-15T09:17:20;28.20;57.10
11599;DHT22;5855;48.840;9.188;2022-07-15T09:20:04;28.30;57.20
11599;DHT22;5855;48.840;9.188;2022-07-15T09:22:48;28.30;55.10
11599;DHT22;5855;48.840;9.188;2022-07-15T09:25:15;27.50;55.90
11599;DHT22;5855;48.840;9.188;2022-07-15T09:27:43;27.70;57.20
11599;DHT22;5855;48.840;9.188;2022-07-15T09:30:15;28.20;56.70
11599;DHT22;5855;48.840;9.188;2022-07-15T09:33:05;28.40;55.90
11599;DHT22;5855;48.840;9.188;2022-07-15T09:35:51;28.80;55.20
11599;DHT22;5855;48.840;9.188;2022-07-15T09:38:31;29.10;54.20
11599;DHT22;5855;48.840;9.188;2022-07-15T09:40:59;29.20;53.50
11599;DHT22;5855;48.840;9.188;2022-07-15T09:43:26;29.50;52.10
11599;DHT22;5855;48.840;9.188;2022-07-15T09:45:57;29.50;51.90
11599;DHT22;5855;48.840;9.188;2022-07-15T09:48:26;29.70;51.90
11599;DHT22;5855;48.840;9.188;2022-07-15T09:50:59;29.70;51.60
11599;DHT22;5855;48.840;9.188;2022-07-15T09:53:26;29.80;51.70
11599;DHT22;5855;48.840;9.188;2022-07-15T09:55:54;30.00;51.40
11599;DHT22;5855;48.840;9.188;2022-07-15T09:58:21;30.20;50.10
11599;DHT22;5855;48.840;9.188;2022-07-15T10:00:48;30.50;49.60
11599;DHT22;5855;48.840;9.188;2022-07-15T10:03:17;30.60;48.30
11599;DHT22;5855;48.840;9.188;2022-07-15T10:05:46;30.40;48.80
11599;DHT22;5855;48.840;9.188;2022-07-15T10:08:14;30.50;49.50
11599;DHT22;5855;48.840;9.188;2022-07-15T10:10:42;30.40;49.30
11599;DHT22;5855;48.840;9.188;2022-07-15T10:13:16;30.70;47.80
11599;DHT22;5855;48.840;9.188;2022-07-15T10:15:56;30.90;47.50
11599;DHT22;5855;48.840;9.188;2022-07-15T10:18:38;31.00;47.60
11599;DHT22;5855;48.840;9.188;2022-07-15T10:21:21;31.20;46.40
11599;DHT22;5855;48.840;9.188;2022-07-15T10:24:11;31.20;45.70
11599;DHT22;5855;48.840;9.188;2022-07-15T10:26:50;31.10;44.40
11599;DHT22;5855;48.840;9.188;2022-07-15T10:29:20;30.80;45.20
11599;DHT22;5855;48.840;9.188;2022-07-15T10:31:56;31.10;45.60
11599;DHT22;5855;48.840;9.188;2022-07-15T10:34:29;31.50;46.10
11599;DHT22;5855;48.840;9.188;2022-07-15T10:36:59;31.80;43.50
11599;DHT22;5855;48.840;9.188;2022-07-15T10:39:29;31.70;44.80
11599;DHT22;5855;48.840;9.188;2022-07-15T10:42:13;31.80;44.10
11599;DHT22;5855;48.840;9.188;2022-07-15T10:44:50;32.10;43.40
11599;DHT22;5855;48.840;9.188;2022-07-15T10:47:28;32.60;42.80
11599;DHT22;5855;48.840;9.188;2022-07-15T10:49:55;32.60;41.70
11599;DHT22;5855;48.840;9.188;2022-07-15T10:52:26;32.60;42.40
11599;DHT22;5855;48.840;9.188;2022-07-15T10:55:01;32.60;43.00
11599;DHT22;5855;48.840;9.188;2022-07-15T10:57:51;32.70;42.20
11599;DHT22;5855;48.840;9.188;2022-07-15T11:00:26;33.10;41.70
11599;DHT22;5855;48.840;9.188;2022-07-15T11:03:02;33.10;41.30
11599;DHT22;5855;48.840;9.188;2022-07-15T11:05:29;33.40;41.10
11599;DHT22;5855;48.840;9.188;2022-07-15T11:07:58;33.50;39.80
11599;DHT22;5855;48.840;9.188;2022-07-15T11:10:25;33.80;40.30
11599;DHT22;5855;48.840;9.188;2022-07-15T11:13:02;34.30;39.40
11599;DHT22;5855;48.840;9.188;2022-07-15T11:15:38;34.40;39.10
11599;DHT22;5855;48.840;9.188;2022-07-15T11:18:05;34.60;39.00
11599;DHT22;5855;48.840;9.188;2022-07-15T11:20:34;34.90;38.20
11599;DHT22;5855;48.840;9.188;2022-07-15T11:23:03;35.20;37.60
11599;DHT22;5855;48.840;9.188;2022-07-15T11:25:33;35.20;36.70
11599;DHT22;5855;48.840;9.188;2022-07-15T11:28:03;35.60;36.10
11599;DHT22;5855;48.840;9.188;2022-07-15T11:30:34;35.80;35.50
11599;DHT22;5855;48.840;9.188;2022-07-15T11:33:05;36.20;34.80
11599;DHT22;5855;48.840;9.188;2022-07-15T11:35:45;36.30;34.40
11599;DHT22;5855;48.840;9.188;2022-07-15T11:38:14;36.70;33.00
11599;DHT22;5855;48.840;9.188;2022-07-15T11:40:46;36.90;33.00
11599;DHT22;5855;48.840;9.188;2022-07-15T11:43:31;37.20;32.80
11599;DHT22;5855;48.840;9.188;2022-07-15T11:46:16;37.50;32.10
11599;DHT22;5855;48.840;9.188;2022-07-15T11:48:45;37.60;31.60
11599;DHT22;5855;48.840;9.188;2022-07-15T11:51:12;37.90;30.80
11599;DHT22;5855;48.840;9.188;2022-07-15T11:53:41;38.30;30.40
11599;DHT22;5855;48.840;9.188;2022-07-15T11:56:09;38.90;29.90
11599;DHT22;5855;48.840;9.188;2022-07-15T11:58:38;39.00;29.00
11599;DHT22;5855;48.840;9.188;2022-07-15T12:01:07;39.10;28.40
11599;DHT22;5855;48.840;9.188;2022-07-15T12:03:37;39.30;28.00
11599;DHT22;5855;48.840;9.188;2022-07-15T12:06:09;39.30;28.20
11599;DHT22;5855;48.840;9.188;2022-07-15T12:08:39;39.90;27.50
11599;DHT22;5855;48.840;9.188;2022-07-15T12:11:12;40.20;26.80
11599;DHT22;5855;48.840;9.188;2022-07-15T12:13:44;40.20;26.90
11599;DHT22;5855;48.840;9.188;2022-07-15T12:16:12;40.50;26.70
11599;DHT22;5855;48.840;9.188;2022-07-15T12:18:40;40.50;25.70
11599;DHT22;5855;48.840;9.188;2022-07-15T12:21:08;40.40;25.60
11599;DHT22;5855;48.840;9.188;2022-07-15T12:23:35;40.30;25.30
11599;DHT22;5855;48.840;9.188;2022-07-15T12:26:07;39.90;25.50
11599;DHT22;5855;48.840;9.188;2022-07-15T12:28:36;39.80;25.80
11599;DHT22;5855;48.840;9.188;2022-07-15T12:31:03;39.80;25.20
11599;DHT22;5855;48.840;9.188;2022-07-15T12:33:34;40.50;24.60
11599;DHT22;5855;48.840;9.188;2022-07-15T12:36:17;41.80;24.10
11599;DHT22;5855;48.840;9.188;2022-07-15T12:38:45;42.80;23.50
11599;DHT22;5855;48.840;9.188;2022-07-15T12:41:27;43.20;22.70
11599;DHT22;5855;48.840;9.188;2022-07-15T12:43:56;43.30;22.40
11599;DHT22;5855;48.840;9.188;2022-07-15T12:46:47;43.20;22.20
11599;DHT22;5855;48.840;9.188;2022-07-15T12:49:39;43.20;22.20
11599;DHT22;5855;48.840;9.188;2022-07-15T12:52:35;43.50;21.90
11599;DHT22;5855;48.840;9.188;2022-07-15T12:55:13;44.20;21.80
11599;DHT22;5855;48.840;9.188;2022-07-15T12:57:41;44.90;21.30
11599;DHT22;5855;48.840;9.188;2022-07-15T13:00:12;45.30;20.70
11599;DHT22;5855;48.840;9.188;2022-07-15T13:03:01;45.90;19.80
11599;DHT22;5855;48.840;9.188;2022-07-15T13:05:31;46.30;19.70
11599;DHT22;5855;48.840;9.188;2022-07-15T13:08:00;47.10;19.00
11599;DHT22;5855;48.840;9.188;2022-07-15T13:10:29;47.40;18.90
11599;DHT22;5855;48.840;9.188;2022-07-15T13:12:56;47.40;18.10
11599;DHT22;5855;48.840;9.188;2022-07-15T13:15:23;47.40;17.90
11599;DHT22;5855;48.840;9.188;2022-07-15T13:17:50;47.70;17.40
11599;DHT22;5855;48.840;9.188;2022-07-15T13:20:17;47.40;17.30
11599;DHT22;5855;48.840;9.188;2022-07-15T13:22:44;45.60;18.10
11599;DHT22;5855;48.840;9.188;2022-07-15T13:25:13;45.20;18.30
11599;DHT22;5855;48.840;9.188;2022-07-15T13:27:40;44.20;18.80
11599;DHT22;5855;48.840;9.188;2022-07-15T13:30:08;42.40;19.40
11599;DHT22;5855;48.840;9.188;2022-07-15T13:32:35;42.10;19.90
11599;DHT22;5855;48.840;9.188;2022-07-15T13:35:02;42.00;19.90
11599;DHT22;5855;48.840;9.188;2022-07-15T13:37:29;41.40;20.00
11599;DHT22;5855;48.840;9.188;2022-07-15T13:39:56;41.20;20.40
11599;DHT22;5855;48.840;9.188;2022-07-15T13:42:25;40.40;20.70
11599;DHT22;5855;48.840;9.188;2022-07-15T13:44:52;38.50;22.00
11599;DHT22;5855;48.840;9.188;2022-07-15T13:47:19;38.30;22.60
11599;DHT22;5855;48.840;9.188;2022-07-15T13:49:46;37.50;23.10
11599;DHT22;5855;48.840;9.188;2022-07-15T13:52:30;37.10;23.30
11599;DHT22;5855;48.840;9.188;2022-07-15T13:54:57;36.20;24.10
11599;DHT22;5855;48.840;9.188;2022-07-15T13:57:25;35.50;24.70
11599;DHT22;5855;48.840;9.188;2022-07-15T13:59:52;34.80;25.50
11599;DHT22;5855;48.840;9.188;2022-07-15T14:02:19;34.30;25.80
11599;DHT22;5855;48.840;9.188;2022-07-15T14:04:46;33.40;26.80
11599;DHT22;5855;48.840;9.188;2022-07-15T14:07:13;33.70;27.20
11599;DHT22;5855;48.840;9.188;2022-07-15T14:09:40;33.20;27.50
11599;DHT22;5855;48.840;9.188;2022-07-15T14:12:07;33.20;27.90
11599;DHT22;5855;48.840;9.188;2022-07-15T14:14:35;34.10;27.10
11599;DHT22;5855;48.840;9.188;2022-07-15T14:17:02;34.70;26.60
11599;DHT22;5855;48.840;9.188;2022-07-15T14:19:29;35.80;25.80
11599;DHT22;5855;48.840;9.188;2022-07-15T14:21:56;37.10;25.40
11599;DHT22;5855;48.840;9.188;2022-07-15T14:24:23;38.60;24.20
11599;DHT22;5855;48.840;9.188;2022-07-15T14:26:49;39.60;23.00
11599;DHT22;5855;48.840;9.188;2022-07-15T14:29:16;40.50;22.40
11599;DHT22;5855;48.840;9.188;2022-07-15T14:31:45;39.80;22.20
11599;DHT22;5855;48.840;9.188;2022-07-15T14:34:11;39.70;22.40
11599;DHT22;5855;48.840;9.188;2022-07-15T14:36:38;40.10;22.30
11599;DHT22;5855;48.840;9.188;2022-07-15T14:39:07;40.40;21.80
11599;DHT22;5855;48.840;9.188;2022-07-15T14:41:33;39.70;22.10
11599;DHT22;5855;48.840;9.188;2022-07-15T14:44:01;39.00;22.50
11599;DHT22;5855;48.840;9.188;2022-07-15T14:46:28;38.50;23.10
11599;DHT22;5855;48.840;9.188;2022-07-15T14:48:57;38.80;22.80
11599;DHT22;5855;48.840;9.188;2022-07-15T14:51:23;39.10;22.70
11599;DHT22;5855;48.840;9.188;2022-07-15T14:53:50;39.30;22.30
11599;DHT22;5855;48.840;9.188;2022-07-15T14:56:17;39.50;22.90
11599;DHT22;5855;48.840;9.188;2022-07-15T14:58:44;40.20;22.10
11599;DHT22;5855;48.840;9.188;2022-07-15T15:01:11;40.90;21.20
11599;DHT22;5855;48.840;9.188;2022-07-15T15:03:38;41.30;20.80
11599;DHT22;5855;48.840;9.188;2022-07-15T15:06:06;41.80;20.70
11599;DHT22;5855;48.840;9.188;2022-07-15T15:08:33;41.90;20.70
11599;DHT22;5855;48.840;9.188;2022-07-15T15:11:00;42.10;20.40
11599;DHT22;5855;48.840;9.188;2022-07-15T15:13:27;42.20;20.20
11599;DHT22;5855;48.840;9.188;2022-07-15T15:15:54;41.80;20.20
11599;DHT22;5855;48.840;9.188;2022-07-15T15:18:21;41.50;20.20
11599;DHT22;5855;48.840;9.188;2022-07-15T15:20:47;41.20;20.20
11599;DHT22;5855;48.840;9.188;2022-07-15T15:23:16;41.20;20.00
11599;DHT22;5855;48.840;9.188;2022-07-15T15:25:43;41.30;20.50
11599;DHT22;5855;48.840;9.188;2022-07-15T15:28:27;41.50;20.00
11599;DHT22;5855;48.840;9.188;2022-07-15T15:30:54;41.80;19.90
11599;DHT22;5855;48.840;9.188;2022-07-15T15:33:21;41.50;20.00
11599;DHT22;5855;48.840;9.188;2022-07-15T15:35:48;41.40;19.80
11599;DHT22;5855;48.840;9.188;2022-07-15T15:38:17;41.10;19.70
11599;DHT22;5855;48.840;9.188;2022-07-15T15:40:44;40.60;20.10
11599;DHT22;5855;48.840;9.188;2022-07-15T15:43:10;40.40;20.30
11599;DHT22;5855;48.840;9.188;2022-07-15T15:45:40;40.40;20.10
11599;DHT22;5855;48.840;9.188;2022-07-15T15:48:07;40.00;20.50
11599;DHT22;5855;48.840;9.188;2022-07-15T15:50:34;39.90;20.30
11599;DHT22;5855;48.840;9.188;2022-07-15T15:53:01;40.10;20.40
11599;DHT22;5855;48.840;9.188;2022-07-15T15:55:29;40.20;20.10